Time;durP1;ratioP1;P1;durP2;ratioP2;P2;SDS_P1;SDS_P2;PMS_P1;PMS_P2;Temp;Humidity;BMP_temperature;BMP_pressure;BME280_temperature;BME280_humidity;BME280_pressure;Samples;Min_cycle;Max_cycle;Signal;HPM_P1;HPM_P2
2024/02/10 00:01:34;;;;;;;17.80;10.75;;;;;;;9.81;100.00;98131.09;4989913;28;20057;-79
2024/02/10 00:04:01;;;;;;;20.75;11.15;;;;;;;9.78;100.00;98131.50;4975424;28;20050;-79
2024/02/10 00:06:28;;;;;;;14.88;10.45;;;;;;;9.77;100.00;98129.84;4989977;28;20054;-79
2024/02/10 00:08:54;;;;;;;17.65;11.05;;;;;;;9.82;100.00;98130.06;4993799;28;20050;-78
2024/02/10 00:11:21;;;;;;;17.73;11.18;;;;;;;9.79;100.00;98133.13;4994588;28;20078;-79
2024/02/10 00:13:51;;;;;;;15.23;9.85;;;;;;;9.82;100.00;98138.00;4982791;28;20051;-78
2024/02/10 00:16:17;;;;;;;17.17;11.13;;;;;;;9.78;100.00;98134.13;4974395;28;20050;-79
2024/02/10 00:18:46;;;;;;;15.75;10.43;;;;;;;9.78;100.00;98124.38;4973702;28;20612;-79
2024/02/10 00:21:13;;;;;;;15.98;10.13;;;;;;;9.75;100.00;98137.97;4974404;28;20600;-79
2024/02/10 00:23:41;;;;;;;16.67;10.38;;;;;;;9.74;100.00;98128.41;4974349;28;20081;-78
2024/02/10 00:26:07;;;;;;;19.25;10.88;;;;;;;9.78;100.00;98134.13;4986204;28;20167;-79
2024/02/10 00:28:35;;;;;;;14.82;10.82;;;;;;;9.75;100.00;98134.50;4993684;28;20081;-79
2024/02/10 00:31:03;;;;;;;16.23;10.68;;;;;;;9.76;100.00;98133.50;4994052;28;20053;-78
2024/02/10 00:33:30;;;;;;;16.55;9.60;;;;;;;9.76;100.00;98138.78;4987945;28;20090;-79
2024/02/10 00:35:57;;;;;;;17.42;10.20;;;;;;;9.71;100.00;98135.88;4975815;28;20051;-79
2024/02/10 00:38:24;;;;;;;15.82;10.95;;;;;;;9.67;100.00;98134.63;4974771;28;20046;-78
2024/02/10 00:40:50;;;;;;;15.88;11.13;;;;;;;9.69;100.00;98132.59;4975631;28;20535;-78
2024/02/10 00:43:17;;;;;;;14.68;10.07;;;;;;;9.75;100.00;98137.16;4986433;28;20093;-79
2024/02/10 00:45:46;;;;;;;16.38;10.93;;;;;;;9.76;100.00;98133.50;4987531;28;20565;-78
2024/02/10 00:48:14;;;;;;;19.50;10.98;;;;;;;9.72;100.00;98126.94;4993093;28;20412;-78
2024/02/10 00:50:41;;;;;;;18.27;10.45;;;;;;;9.68;100.00;98126.50;4987676;28;20143;-76
2024/02/10 00:53:08;;;;;;;16.95;10.00;;;;;;;9.68;100.00;98126.50;4991497;28;20050;-76
2024/02/10 00:55:35;;;;;;;15.88;11.05;;;;;;;9.64;100.00;98125.25;4991025;28;20050;-77
2024/02/10 00:58:02;;;;;;;18.23;11.48;;;;;;;9.66;100.00;98117.16;4991132;28;20081;-77
2024/02/10 01:00:30;;;;;;;20.42;11.20;;;;;;;9.65;100.00;98120.81;4991281;28;20458;-77
2024/02/10 01:02:57;;;;;;;17.02;11.60;;;;;;;9.64;100.00;98114.69;4983295;28;20121;-77
2024/02/10 01:05:25;;;;;;;19.52;11.55;;;;;;;9.62;100.00;98120.16;4971654;28;20086;-78
2024/02/10 01:07:52;;;;;;;17.20;11.13;;;;;;;9.59;100.00;98117.91;4970876;28;20517;-77
2024/02/10 01:10:19;;;;;;;15.07;11.38;;;;;;;9.59;100.00;98117.09;4971843;28;20133;-78
2024/02/10 01:12:46;;;;;;;17.65;12.20;;;;;;;9.60;100.00;98122.19;4971514;28;20444;-77
2024/02/10 01:15:13;;;;;;;19.48;12.32;;;;;;;9.60;100.00;98116.91;4976371;28;20046;-78
2024/02/10 01:17:46;;;;;;;21.05;13.70;;;;;;;9.61;100.00;98117.72;4991001;28;20092;-77
2024/02/10 01:20:17;;;;;;;;;;;;;;;9.60;100.00;98124.84;4991396;28;20484;-78
2024/02/10 01:22:46;;;;;;;22.40;13.63;;;;;;;9.60;100.00;98121.38;4986165;28;19928;-77
2024/02/10 01:25:12;;;;;;;22.95;13.93;;;;;;;9.56;100.00;98120.94;4971318;28;20046;-77
2024/02/10 01:27:39;;;;;;;20.98;14.07;;;;;;;9.57;100.00;98125.22;4971358;28;20082;-77
2024/02/10 01:30:07;;;;;;;20.50;14.05;;;;;;;9.56;100.00;98123.56;4971397;28;20085;-77
2024/02/10 01:32:34;;;;;;;23.27;14.15;;;;;;;9.52;100.00;98121.50;4980054;28;20119;-77
2024/02/10 01:35:03;;;;;;;19.90;13.68;;;;;;;9.52;100.00;98121.50;4990452;28;20141;-78
2024/02/10 01:37:31;;;;;;;19.88;12.93;;;;;;;9.53;100.00;98120.50;4983521;28;20051;-77
2024/02/10 01:40:01;;;;;;;18.75;11.80;;;;;;;9.52;100.00;98126.78;4989827;28;20093;-78
2024/02/10 01:42:37;;;;;;;16.40;10.80;;;;;;;9.50;100.00;98129.59;4984543;28;20157;-78
2024/02/10 01:45:07;;;;;;;13.68;10.77;;;;;;;9.46;100.00;98132.81;4979228;28;20150;-77
2024/02/10 01:47:36;;;;;;;15.07;10.38;;;;;;;9.49;100.00;98124.50;4971665;28;20050;-77
2024/02/10 01:50:03;;;;;;;15.63;10.43;;;;;;;9.46;100.00;98123.06;4976013;28;20050;-77
2024/02/10 01:52:30;;;;;;;14.68;9.93;;;;;;;9.43;100.00;98123.44;4992317;28;20078;-76
2024/02/10 01:54:56;;;;;;;15.43;10.00;;;;;;;9.42;100.00;98131.53;4992141;28;20487;-78
2024/02/10 01:57:26;;;;;;;13.05;9.23;;;;;;;9.39;100.00;98124.03;4991055;28;20133;-77
2024/02/10 01:59:53;;;;;;;14.68;9.13;;;;;;;9.41;100.00;98119.34;4987740;28;20421;-77
2024/02/10 02:02:20;;;;;;;13.50;9.73;;;;;;;9.43;100.00;98112.91;4996471;28;20101;-78
2024/02/10 02:04:46;;;;;;;12.95;9.25;;;;;;;9.42;100.00;98116.53;4995678;28;20129;-77
2024/02/10 02:07:13;;;;;;;12.85;9.23;;;;;;;9.41;100.00;98114.88;4993961;28;20090;-77
2024/02/10 02:09:40;;;;;;;14.13;9.30;;;;;;;9.41;100.00;98114.88;4993670;28;20046;-77
2024/02/10 02:12:08;;;;;;;11.80;8.73;;;;;;;9.39;100.00;98111.63;4977983;28;20056;-78
2024/02/10 02:14:36;;;;;;;14.20;9.98;;;;;;;9.36;100.00;98118.09;4974832;28;20050;-77
2024/02/10 02:17:04;;;;;;;12.88;8.73;;;;;;;9.40;100.00;98123.81;4974666;28;20081;-77
2024/02/10 02:22:00;;;;;;;12.57;8.90;;;;;;;9.38;100.00;98125.84;5002840;28;20050;-83
2024/02/10 02:24:28;;;;;;;11.35;9.20;;;;;;;9.42;100.00;98120.97;5014963;28;20045;-84
2024/02/10 02:26:55;;;;;;;14.50;8.40;;;;;;;9.34;100.00;98119.31;5014133;28;20080;-83
2024/02/10 02:29:21;;;;;;;12.88;8.82;;;;;;;9.32;100.00;98111.56;5008121;28;20074;-84
2024/02/10 02:31:48;;;;;;;12.60;9.02;;;;;;;9.25;100.00;98109.88;5011635;28;20046;-83
2024/02/10 02:34:15;;;;;;;13.10;9.30;;;;;;;9.21;100.00;98111.25;5008803;28;20117;-85
2024/02/10 02:36:42;;;;;;;17.98;10.27;;;;;;;9.14;100.00;98115.63;5011677;28;20133;-85
2024/02/10 02:39:09;;;;;;;13.10;9.93;;;;;;;9.04;100.00;98114.13;5004838;28;20062;-85
2024/02/10 02:41:41;;;;;;;14.07;10.18;;;;;;;8.96;100.00;98108.13;5001996;28;20051;-85
2024/02/10 02:44:25;;;;;;;11.80;9.80;;;;;;;8.96;100.00;98121.31;5016829;28;20504;-85
2024/02/10 02:47:12;;;;;;;12.32;9.70;;;;;;;8.91;100.00;98111.31;5002621;28;20173;-86
2024/02/10 02:49:39;;;;;;;11.77;9.55;;;;;;;8.91;100.00;98113.16;4992121;28;20145;-86
2024/02/10 02:52:13;;;;;;;12.23;9.70;;;;;;;8.89;100.00;98104.63;5000264;28;20528;-86
2024/02/10 02:54:53;;;;;;;12.45;9.38;;;;;;;8.85;100.00;98094.44;5002044;28;20057;-85
2024/02/10 02:57:44;;;;;;;10.45;8.70;;;;;;;8.82;100.00;98094.78;5002704;28;20076;-84
2024/02/10 03:00:52;;;;;;;11.25;8.88;;;;;;;8.84;100.00;98095.44;4999951;28;20106;-86
2024/02/10 03:03:22;;;;;;;10.80;8.70;;;;;;;8.83;100.00;98099.06;5003509;28;20037;-86
2024/02/10 03:06:01;;;;;;;12.88;8.75;;;;;;;8.74;100.00;98104.63;5003651;28;20109;-87
2024/02/10 03:08:35;;;;;;;10.38;8.60;;;;;;;8.68;100.00;98108.03;5003755;28;20050;-87
2024/02/10 03:11:26;;;;;;;14.43;8.63;;;;;;;8.51;100.00;98108.22;5000805;28;20095;-88
2024/02/10 03:14:50;;;;;;;11.32;8.77;;;;;;;8.38;100.00;98105.41;5014769;28;20038;-88
2024/02/10 03:17:49;;;;;;;13.13;8.70;;;;;;;8.27;100.00;98105.84;4934023;29;20044;-86
2024/02/10 03:20:40;;;;;;;11.85;8.88;;;;;;;8.19;100.00;98098.00;4997973;28;20046;-86
2024/02/10 03:23:20;;;;;;;11.20;8.88;;;;;;;8.25;100.00;98087.56;5017195;28;20054;-86
2024/02/10 03:25:47;;;;;;;12.63;9.07;;;;;;;8.29;100.00;98093.28;5017111;28;20034;-87
2024/02/10 03:28:24;;;;;;;15.02;9.23;;;;;;;8.28;100.00;98081.94;5016942;28;20116;-85
2024/02/10 03:30:54;;;;;;;13.48;9.50;;;;;;;8.24;100.00;98087.75;5017416;28;20045;-88
2024/02/10 03:33:28;;;;;;;12.93;9.10;;;;;;;8.14;100.00;98089.84;5016780;28;20035;-87
2024/02/10 03:36:12;;;;;;;16.30;9.50;;;;;;;8.10;100.00;98092.00;5007736;28;20089;-86
2024/02/10 03:38:47;;;;;;;12.05;9.45;;;;;;;8.05;100.00;98097.81;5008239;28;20055;-86
2024/02/10 03:41:15;;;;;;;12.63;8.90;;;;;;;8.00;100.00;98094.91;5016010;28;20066;-86
2024/02/10 03:43:42;;;;;;;11.45;9.20;;;;;;;7.98;100.00;98091.63;5016188;28;20107;-87
2024/02/10 03:46:09;;;;;;;15.90;10.40;;;;;;;7.98;100.00;98091.63;5016505;28;20030;-86
2024/02/10 03:48:39;;;;;;;14.15;9.45;;;;;;;7.99;100.00;98088.03;5016130;28;20045;-87
2024/02/10 03:51:07;;;;;;;12.10;9.60;;;;;;;7.95;100.00;98085.94;5009101;28;20123;-88
2024/02/10 03:53:56;;;;;;;14.00;9.00;;;;;;;7.90;100.00;98080.34;5017141;28;20038;-86
2024/02/10 03:56:27;;;;;;;12.23;9.30;;;;;;;7.87;100.00;98086.81;5011124;28;20046;-87
2024/02/10 03:59:12;;;;;;;11.90;9.30;;;;;;;7.83;100.00;98080.28;5016553;28;20114;-88
2024/02/10 04:01:48;;;;;;;11.13;8.85;;;;;;;7.85;100.00;98092.25;5011713;28;20050;-87
2024/02/10 04:04:30;;;;;;;12.82;9.57;;;;;;;7.89;100.00;98091.91;5011700;28;20039;-87
2024/02/10 04:10:02;;;;;;;13.63;10.75;;;;;;;7.87;100.00;98092.09;5008156;28;20078;-86
2024/02/10 04:12:32;;;;;;;14.35;9.85;;;;;;;7.87;100.00;98092.09;5016806;28;20105;-86
2024/02/10 04:18:25;;;;;;;12.80;10.25;;;;;;;7.78;100.00;98096.59;5005036;28;20049;-86
2024/02/10 04:20:55;;;;;;;13.57;10.23;;;;;;;7.82;100.00;98097.06;5014480;28;20039;-88
2024/02/10 04:23:33;;;;;;;13.93;11.25;;;;;;;7.83;100.00;98098.69;5015568;28;20046;-86
2024/02/10 04:36:31;;;;;;;20.55;11.90;;;;;;;7.63;100.00;98102.81;5014342;28;20049;-87
2024/02/10 04:39:05;;;;;;;16.70;11.77;;;;;;;7.64;100.00;98102.66;5015081;28;20046;-88
2024/02/10 04:41:46;;;;;;;14.20;11.00;;;;;;;7.54;100.00;98102.88;5016341;28;20035;-88
2024/02/10 04:44:25;;;;;;;18.48;12.23;;;;;;;7.62;100.00;98103.81;5016214;28;20054;-88
2024/02/10 04:47:05;;;;;;;21.50;12.50;;;;;;;7.48;100.00;98098.34;5004833;28;20065;-87
2024/02/10 04:49:59;;;;;;;18.05;12.93;;;;;;;7.49;100.00;98105.22;5008270;28;20051;-88
2024/02/10 04:52:55;;;;;;;17.67;12.93;;;;;;;7.40;100.00;98095.75;5016388;28;20054;-88
2024/02/10 04:55:44;;;;;;;17.23;12.73;;;;;;;7.33;100.00;98102.75;5004219;28;20054;-88
2024/02/10 05:01:19;;;;;;;16.45;12.55;;;;;;;7.37;100.00;98108.44;4997724;28;20419;-86
2024/02/10 05:03:47;;;;;;;17.08;12.88;;;;;;;7.32;100.00;98111.59;5015661;28;20039;-86
2024/02/10 05:06:13;;;;;;;20.55;13.43;;;;;;;7.22;100.00;98108.41;5007540;28;20055;-86
2024/02/10 05:08:40;;;;;;;21.13;12.73;;;;;;;7.22;100.00;98111.03;5012308;28;20066;-88
2024/02/10 05:11:08;;;;;;;19.50;12.85;;;;;;;7.14;100.00;98109.25;5009404;28;20165;-86
2024/02/10 05:13:35;;;;;;;21.13;12.02;;;;;;;7.09;100.00;98106.34;5006040;28;20508;-87
2024/02/10 05:16:01;;;;;;;17.98;12.85;;;;;;;7.20;100.00;98107.78;5006741;28;20054;-86
2024/02/10 05:18:28;;;;;;;16.70;11.50;;;;;;;7.18;100.00;98107.09;4999339;28;20078;-86
2024/02/10 05:20:57;;;;;;;19.80;12.60;;;;;;;7.17;100.00;98113.38;5004363;28;20058;-85
2024/02/10 05:23:26;;;;;;;19.42;13.27;;;;;;;7.20;100.00;98118.28;5007107;28;20053;-86
2024/02/10 05:25:53;;;;;;;19.98;13.25;;;;;;;7.15;100.00;98108.28;5005962;28;20050;-87
2024/02/10 05:28:25;;;;;;;22.33;14.15;;;;;;;7.08;100.00;98108.16;4999399;28;20061;-86
2024/02/10 05:30:54;;;;;;;21.85;13.35;;;;;;;7.07;100.00;98106.53;5000486;28;20437;-86
2024/02/10 05:33:23;;;;;;;23.65;14.43;;;;;;;7.00;100.00;98113.47;5012434;28;20050;-87
2024/02/10 05:35:50;;;;;;;18.48;13.10;;;;;;;7.02;100.00;98115.94;5012159;28;20054;-86
2024/02/10 05:38:21;;;;;;;20.25;13.57;;;;;;;7.03;100.00;98113.13;4998460;28;20393;-86
2024/02/10 05:40:58;;;;;;;23.23;14.43;;;;;;;7.04;100.00;98116.56;4985879;28;20199;-86
2024/02/10 05:43:34;;;;;;;20.55;13.68;;;;;;;6.92;100.00;98118.78;4988294;28;20057;-85
2024/02/10 05:46:09;;;;;;;19.90;14.00;;;;;;;6.84;100.00;98119.66;5000635;28;20058;-86
2024/02/10 05:48:39;;;;;;;17.83;13.27;;;;;;;6.80;100.00;98120.16;5000936;28;20469;-85
2024/02/10 05:51:14;;;;;;;24.00;14.45;;;;;;;6.80;100.00;98128.84;4993015;28;20046;-85
2024/02/10 05:58:16;;;;;;;20.80;13.38;;;;;;;6.62;100.00;98128.28;4973085;28;20130;-84
2024/02/10 06:01:28;;;;;;;19.33;12.30;;;;;;;6.58;100.00;98129.63;5002070;28;20054;-84
2024/02/10 06:04:41;;;;;;;20.23;12.85;;;;;;;6.50;100.00;98127.00;5001809;28;20042;-85
2024/02/10 06:10:06;;;;;;;21.55;14.73;;;;;;;6.87;100.00;98121.09;4990494;28;20054;-86
2024/02/10 06:13:37;;;;;;;;;;;;;;;;;;;;;
2024/02/10 06:19:40;;;;;;;26.63;15.80;;;;;;;6.99;100.00;98124.97;4918575;29;20048;-85
2024/02/10 06:25:22;;;;;;;20.00;14.18;;;;;;;6.92;100.00;98118.78;4967429;29;20498;-85
2024/02/10 06:27:57;;;;;;;21.42;14.18;;;;;;;6.96;100.00;98122.69;5003130;28;20058;-85
2024/02/10 06:30:30;;;;;;;23.45;15.25;;;;;;;7.11;100.00;98127.22;4992986;28;20047;-84
2024/02/10 06:33:04;;;;;;;26.50;15.15;;;;;;;7.15;100.00;98124.06;5001605;28;20421;-87
2024/02/10 06:35:36;;;;;;;27.42;15.40;;;;;;;7.18;100.00;98141.31;4991220;28;20047;-87
2024/02/10 06:38:03;;;;;;;23.10;14.80;;;;;;;7.20;100.00;98134.88;4998084;28;20054;-86
2024/02/10 06:40:39;;;;;;;23.27;15.27;;;;;;;7.18;100.00;98136.03;4997711;28;20141;-87
2024/02/10 06:43:13;;;;;;;23.65;15.60;;;;;;;7.16;100.00;98132.78;4991716;28;20054;-84
2024/02/10 06:45:43;;;;;;;22.67;15.63;;;;;;;7.09;100.00;98132.63;4999088;28;20056;-85
2024/02/10 06:48:13;;;;;;;24.45;15.73;;;;;;;7.03;100.00;98136.78;4993948;28;20055;-86
2024/02/10 06:50:43;;;;;;;28.52;17.50;;;;;;;7.07;100.00;98145.16;4995875;28;20130;-85
2024/02/10 06:53:15;;;;;;;25.50;16.63;;;;;;;6.98;100.00;98154.09;4989962;28;20042;-85
2024/02/10 06:55:53;;;;;;;28.05;16.52;;;;;;;6.94;100.00;98156.22;4998171;28;20058;-87
2024/02/10 06:58:30;;;;;;;27.35;16.70;;;;;;;6.95;100.00;98157.03;4996241;28;20068;-85
2024/02/10 07:00:58;;;;;;;24.08;15.90;;;;;;;6.91;100.00;98161.81;4997387;28;20551;-84
2024/02/10 07:03:27;;;;;;;26.58;16.40;;;;;;;6.91;100.00;98161.81;4998254;28;20046;-85
2024/02/10 07:05:55;;;;;;;24.40;16.45;;;;;;;6.79;100.00;98168.47;4997857;28;20108;-84
2024/02/10 07:08:33;;;;;;;26.05;17.48;;;;;;;6.72;100.00;98172.75;4993494;28;20133;-87
2024/02/10 07:14:45;;;;;;;23.05;15.23;;;;;;;6.84;100.00;98176.66;4989574;28;20145;-84
2024/02/10 07:30:06;;;;;;;26.95;16.20;;;;;;;7.17;100.00;98187.00;4911417;29;20060;-85
2024/02/10 07:33:36;;;;;;;25.98;16.80;;;;;;;7.28;100.00;98186.63;4983595;28;20090;-85
2024/02/10 07:38:52;;;;;;;24.05;16.58;;;;;;;7.56;100.00;98186.94;4997462;28;20113;-85
2024/02/10 07:41:22;;;;;;;31.00;16.60;;;;;;;7.59;100.00;98192.69;4994376;28;20417;-85
2024/02/10 07:44:15;;;;;;;26.60;17.67;;;;;;;7.68;100.00;98190.81;4998246;28;20384;-84
2024/02/10 07:47:15;;;;;;;27.67;18.55;;;;;;;7.82;100.00;98195.31;4981431;28;20055;-85
2024/02/10 07:49:48;;;;;;;28.58;17.73;;;;;;;7.95;100.00;98196.53;5000002;28;20050;-85
2024/02/10 07:52:33;;;;;;;29.10;18.08;;;;;;;8.07;100.00;98198.53;4945060;28;20133;-86
2024/02/10 07:55:02;;;;;;;29.20;18.88;;;;;;;8.27;100.00;98198.88;4977209;28;20043;-85
2024/02/10 07:58:09;;;;;;;;;;;;;;;;;;;;;
2024/02/10 08:03:26;;;;;;;28.48;17.88;;;;;;;8.83;100.00;98207.19;4969585;28;20469;-85
2024/02/10 08:06:05;;;;;;;26.98;17.40;;;;;;;8.83;100.00;98204.56;4978227;28;20062;-86
2024/02/10 08:08:34;;;;;;;26.60;16.58;;;;;;;8.89;100.00;98210.94;4971061;28;20061;-85
2024/02/10 08:11:01;;;;;;;21.08;15.52;;;;;;;8.90;100.00;98214.38;4969554;28;20051;-85
2024/02/10 08:13:42;;;;;;;18.13;14.02;;;;;;;8.90;100.00;98209.94;4967391;28;20043;-84
2024/02/10 08:16:37;;;;;;;23.98;15.52;;;;;;;8.89;100.00;98213.56;4971782;28;20461;-86
2024/02/10 08:19:15;;;;;;;17.90;13.88;;;;;;;8.96;100.00;98222.38;4967203;28;20055;-85
2024/02/10 08:21:43;;;;;;;17.45;13.88;;;;;;;8.97;100.00;98213.44;5010186;23;20058;-77
2024/02/10 08:24:11;;;;;;;19.27;13.15;;;;;;;9.10;100.00;98216.25;4986280;28;20046;-76
2024/02/10 08:26:38;;;;;;;18.10;13.30;;;;;;;9.18;100.00;98211.88;5007796;28;20085;-78
2024/02/10 08:29:05;;;;;;;14.68;12.38;;;;;;;9.25;100.00;98210.97;4995018;28;20046;-77
2024/02/10 08:31:36;;;;;;;16.70;12.35;;;;;;;9.36;100.00;98218.41;5010632;28;20500;-77
2024/02/10 08:34:03;;;;;;;14.55;11.65;;;;;;;9.47;100.00;98218.94;5004101;28;20041;-74
2024/02/10 08:36:31;;;;;;;14.55;11.98;;;;;;;9.51;100.00;98210.47;5010841;28;20136;-77
2024/02/10 08:39:03;;;;;;;14.63;10.80;;;;;;;9.57;100.00;98207.06;5009631;28;20149;-75
2024/02/10 08:41:31;;;;;;;13.80;10.27;;;;;;;9.63;100.00;98214.22;5004804;28;20050;-75
2024/02/10 08:43:58;;;;;;;11.93;9.52;;;;;;;9.69;100.00;98207.41;5001305;28;20132;-74
2024/02/10 08:46:25;;;;;;;9.63;8.38;;;;;;;9.72;100.00;98198.25;5003025;28;20283;-75
2024/02/10 08:48:52;;;;;;;10.50;8.65;;;;;;;9.63;100.00;98208.13;5009632;28;20057;-75
2024/02/10 08:51:20;;;;;;;10.38;8.45;;;;;;;9.61;100.00;98205.69;4997480;28;20160;-77
2024/02/10 08:53:48;;;;;;;10.35;8.20;;;;;;;9.56;100.00;98191.41;4995067;28;20050;-76
2024/02/10 08:56:15;;;;;;;10.00;8.82;;;;;;;9.67;100.00;98193.53;4987990;28;20061;-76
2024/02/10 08:58:45;;;;;;;11.57;8.45;;;;;;;9.70;100.00;98187.06;4981568;28;20465;-76
2024/02/10 09:01:16;;;;;;;9.75;8.18;;;;;;;9.63;100.00;98187.00;4980339;28;20400;-78
2024/02/10 09:03:52;;;;;;;10.00;7.75;;;;;;;9.61;100.00;98178.47;4977198;28;20050;-75
2024/02/10 09:06:21;;;;;;;10.27;8.27;;;;;;;9.64;100.00;98180.69;4976932;28;20133;-77
2024/02/10 09:08:48;;;;;;;9.32;8.30;;;;;;;9.71;100.00;98189.53;4974891;28;20050;-78
2024/02/10 09:11:15;;;;;;;8.77;7.60;;;;;;;9.78;100.00;98185.13;4984598;28;20124;-78
2024/02/10 09:13:45;;;;;;;10.15;8.30;;;;;;;9.80;100.00;98185.75;4985987;28;20074;-76
2024/02/10 09:16:11;;;;;;;11.55;7.68;;;;;;;9.91;100.00;98194.16;4985895;28;20054;-76
2024/02/10 09:18:38;;;;;;;8.38;7.35;;;;;;;9.99;97.90;98192.19;4993538;28;20463;-77
2024/02/10 09:21:05;;;;;;;8.60;7.00;;;;;;;10.02;98.02;98194.47;4991600;28;20069;-77
2024/02/10 09:23:31;;;;;;;8.15;6.78;;;;;;;10.07;98.38;98204.47;4988160;28;20134;-77
2024/02/10 09:25:58;;;;;;;9.88;6.80;;;;;;;10.07;95.27;98204.47;4983845;28;20053;-76
2024/02/10 09:28:29;;;;;;;8.02;6.40;;;;;;;10.10;96.27;98202.28;4979901;28;20503;-76
2024/02/10 09:30:57;;;;;;;8.55;6.80;;;;;;;10.18;97.41;98200.47;4983518;28;20137;-76
2024/02/10 09:33:24;;;;;;;9.45;7.43;;;;;;;10.22;95.84;98201.72;4990470;28;20125;-77
2024/02/10 09:35:51;;;;;;;9.57;7.32;;;;;;;10.22;96.33;98199.09;4978123;28;20054;-77
2024/02/10 09:38:22;;;;;;;8.32;6.93;;;;;;;10.27;95.53;98202.84;4976505;28;20042;-76
2024/02/10 09:40:56;;;;;;;9.23;7.38;;;;;;;10.36;94.83;98198.25;4983869;28;20534;-76
2024/02/10 09:43:26;;;;;;;8.82;7.05;;;;;;;10.43;94.55;98191.16;4981936;28;20101;-76
2024/02/10 09:45:52;;;;;;;7.32;6.40;;;;;;;10.47;92.79;98199.53;4977295;28;20050;-76
2024/02/10 09:48:21;;;;;;;7.60;6.80;;;;;;;10.51;93.49;98191.00;4986172;28;20057;-77
2024/02/10 09:50:48;;;;;;;8.65;6.10;;;;;;;10.58;93.87;98191.88;4986318;28;20129;-75
2024/02/10 09:53:15;;;;;;;9.05;6.07;;;;;;;10.67;93.27;98195.19;4985066;28;20138;-76
2024/02/10 09:55:42;;;;;;;8.13;6.40;;;;;;;10.76;92.78;98194.00;4988639;28;20469;-77
2024/02/10 09:58:08;;;;;;;9.25;6.00;;;;;;;10.78;91.12;98193.81;4991470;28;20591;-77
2024/02/10 10:00:37;;;;;;;7.68;6.00;;;;;;;10.80;91.58;98189.94;4994399;28;20132;-76
2024/02/10 10:03:05;;;;;;;7.07;5.70;;;;;;;10.89;90.31;98187.94;5002387;28;20488;-78
2024/02/10 10:05:42;;;;;;;8.30;5.80;;;;;;;10.96;89.52;98194.09;5001632;28;20048;-77
2024/02/10 10:08:10;;;;;;;7.90;5.97;;;;;;;10.96;89.92;98193.28;5010313;28;20385;-76
2024/02/10 10:10:37;;;;;;;7.43;5.57;;;;;;;11.02;90.04;98203.06;5008577;28;20054;-78
2024/02/10 10:13:06;;;;;;;7.68;6.18;;;;;;;10.99;88.97;98199.00;4997169;28;20492;-76
2024/02/10 10:15:34;;;;;;;6.97;5.82;;;;;;;11.10;88.98;98194.97;5003751;28;20500;-76
2024/02/10 10:18:02;;;;;;;8.38;5.93;;;;;;;11.10;88.55;98190.50;5009112;28;20464;-77
2024/02/10 10:20:34;;;;;;;6.90;5.80;;;;;;;11.18;89.51;98191.34;5009225;28;20144;-77
2024/02/10 10:23:00;;;;;;;6.10;5.43;;;;;;;11.25;88.70;98192.16;5001013;28;20077;-76
2024/02/10 10:25:27;;;;;;;7.13;6.32;;;;;;;11.32;89.31;98193.84;5004698;28;20575;-76
2024/02/10 10:27:56;;;;;;;7.43;5.80;;;;;;;11.28;88.57;98192.59;5002662;28;20056;-76
2024/02/10 10:30:26;;;;;;;6.90;5.68;;;;;;;11.50;88.16;98192.47;5003834;28;20497;-75
2024/02/10 10:32:57;;;;;;;7.95;5.97;;;;;;;11.61;87.19;98198.00;5005428;28;20137;-76
2024/02/10 10:35:26;;;;;;;7.85;5.78;;;;;;;11.62;86.80;98185.56;5004882;28;20045;-75
2024/02/10 10:37:55;;;;;;;6.60;5.28;;;;;;;11.67;84.91;98190.25;5001721;28;20054;-76
2024/02/10 10:40:23;;;;;;;8.57;5.28;;;;;;;11.80;84.87;98179.69;5009706;28;20457;-76
2024/02/10 10:42:51;;;;;;;7.43;5.00;;;;;;;11.91;84.62;98189.69;4998829;28;20072;-76
2024/02/10 10:45:20;;;;;;;8.43;5.82;;;;;;;11.91;82.67;98187.03;4996948;28;20046;-76
2024/02/10 10:47:47;;;;;;;7.88;5.85;;;;;;;11.98;82.73;98187.88;4999096;28;20056;-78
2024/02/10 10:50:14;;;;;;;8.60;5.55;;;;;;;12.07;82.78;98191.97;4989759;28;20046;-78
2024/02/10 10:52:42;;;;;;;6.82;5.03;;;;;;;12.26;81.52;98184.19;4991148;28;20129;-77
2024/02/10 10:55:15;;;;;;;7.30;5.53;;;;;;;12.31;81.70;98187.06;4991377;28;20133;-76
2024/02/10 10:57:50;;;;;;;7.45;5.38;;;;;;;12.15;81.99;98183.00;4991927;28;20102;-77
2024/02/10 11:00:21;;;;;;;8.48;5.28;;;;;;;12.21;83.26;98176.88;4995945;28;20450;-77
2024/02/10 11:02:52;;;;;;;9.15;5.28;;;;;;;12.31;83.04;98177.25;5007887;28;20050;-78
2024/02/10 11:05:23;;;;;;;8.63;5.28;;;;;;;12.48;82.24;98167.03;5002523;28;20141;-78
2024/02/10 11:08:00;;;;;;;7.63;5.10;;;;;;;12.42;81.80;98170.53;4992422;28;20050;-76
2024/02/10 11:10:38;;;;;;;7.13;5.32;;;;;;;12.36;81.89;98168.69;4990239;28;20134;-76
2024/02/10 11:13:05;;;;;;;7.50;5.43;;;;;;;12.47;81.71;98176.03;4982993;28;20074;-76
2024/02/10 11:15:32;;;;;;;6.85;4.93;;;;;;;12.36;80.84;98158.88;4984754;28;20472;-76
2024/02/10 11:18:00;;;;;;;7.85;5.25;;;;;;;12.38;81.64;98156.84;4991901;28;20129;-76
2024/02/10 11:20:34;;;;;;;7.45;5.30;;;;;;;12.43;81.18;98148.28;4997533;28;20171;-76
2024/02/10 11:23:10;;;;;;;8.98;5.28;;;;;;;12.47;80.78;98146.03;5001031;28;20080;-76
2024/02/10 11:25:39;;;;;;;7.55;5.35;;;;;;;12.51;80.46;98144.59;4995705;28;20053;-76
2024/02/10 11:28:06;;;;;;;6.65;5.38;;;;;;;12.51;79.93;98142.75;4986351;28;20046;-76
2024/02/10 11:30:34;;;;;;;6.88;5.10;;;;;;;12.47;79.76;98141.53;4997196;28;20551;-76
2024/02/10 11:33:03;;;;;;;6.13;5.20;;;;;;;12.56;79.61;98134.16;5005211;28;20328;-76
2024/02/10 11:35:35;;;;;;;6.57;4.85;;;;;;;12.70;78.87;98122.50;5001088;28;20080;-76
2024/02/10 11:38:05;;;;;;;6.80;5.03;;;;;;;12.68;78.61;98124.53;5005862;28;20305;-76
2024/02/10 11:40:34;;;;;;;5.63;4.72;;;;;;;12.71;78.21;98123.28;4999024;28;20130;-75
2024/02/10 11:43:03;;;;;;;6.07;5.00;;;;;;;12.79;79.07;98120.41;5005620;28;20425;-76
2024/02/10 11:45:32;;;;;;;5.82;4.90;;;;;;;12.95;78.92;98106.69;4994518;28;20047;-76
2024/02/10 11:47:59;;;;;;;5.78;4.95;;;;;;;12.98;77.98;98110.72;4998023;28;20843;-77
2024/02/10 11:50:25;;;;;;;6.78;4.80;;;;;;;12.90;78.18;98111.78;4994111;28;20140;-76
2024/02/10 11:52:53;;;;;;;6.38;4.95;;;;;;;12.87;77.52;98110.38;4992783;28;20050;-77
2024/02/10 11:55:20;;;;;;;6.75;4.85;;;;;;;12.92;77.77;98123.00;4995876;28;20496;-76
2024/02/10 11:57:47;;;;;;;7.53;4.82;;;;;;;12.98;77.14;98127.47;4997023;28;20046;-76
2024/02/10 12:00:18;;;;;;;8.32;4.75;;;;;;;12.84;77.36;98124.06;4996706;28;20141;-74
2024/02/10 12:02:45;;;;;;;6.78;5.10;;;;;;;12.82;77.36;98133.28;4989410;28;20097;-76
2024/02/10 12:05:13;;;;;;;7.88;4.95;;;;;;;12.90;77.53;98122.41;4983974;28;20129;-76
2024/02/10 12:07:40;;;;;;;5.35;4.50;;;;;;;12.82;77.19;98127.97;4984115;28;20046;-77
2024/02/10 12:10:11;;;;;;;7.90;4.85;;;;;;;12.70;78.51;98129.63;4986246;28;20075;-77
2024/02/10 12:12:38;;;;;;;6.47;5.22;;;;;;;12.77;78.94;98127.75;4983884;28;20089;-77
2024/02/10 12:15:07;;;;;;;6.78;5.00;;;;;;;12.71;78.12;98134.72;4997828;28;20060;-77
2024/02/10 12:17:37;;;;;;;6.43;4.43;;;;;;;12.67;79.15;98136.16;4998849;28;20042;-76
2024/02/10 12:20:03;;;;;;;6.82;4.47;;;;;;;12.68;79.37;98134.31;4987112;28;20053;-76
2024/02/10 12:22:31;;;;;;;5.15;4.28;;;;;;;12.68;78.99;98139.63;4986310;28;20424;-76
2024/02/10 12:24:57;;;;;;;6.32;4.68;;;;;;;12.67;78.71;98132.69;4987549;28;20129;-75
2024/02/10 12:27:25;;;;;;;7.88;4.40;;;;;;;12.67;78.82;98122.09;4989824;28;20475;-76
2024/02/10 12:29:52;;;;;;;6.00;4.53;;;;;;;12.62;79.22;98125.38;4987558;28;20050;-76
2024/02/10 12:32:19;;;;;;;6.13;4.40;;;;;;;12.55;79.01;98130.69;4986095;28;20053;-76
2024/02/10 12:34:47;;;;;;;5.28;4.38;;;;;;;12.55;78.36;98125.41;4986622;28;20047;-76
2024/02/10 12:37:13;;;;;;;6.85;4.20;;;;;;;12.55;79.17;98119.28;4987445;28;20064;-76
2024/02/10 12:39:41;;;;;;;5.25;4.22;;;;;;;12.52;79.08;98133.75;4998552;28;20060;-75
2024/02/10 12:42:09;;;;;;;5.97;4.20;;;;;;;12.59;79.27;98126.63;5001677;28;20051;-78
2024/02/10 12:44:37;;;;;;;5.88;4.03;;;;;;;12.54;79.19;98122.94;4998788;28;20049;-77
2024/02/10 12:47:04;;;;;;;8.45;4.18;;;;;;;12.57;78.95;98125.19;5000854;28;20054;-75